Flight Number: AVA3209 Duration: 1:30
Departure: Georgetown Cheddi Jagan (SYCJ) at 09:15 Distance: 582.804 Nm
Arrival: Manaus Eduardo Gomes Intl (SBEG) at 10:45 Equipment: MD-81

Weather Information
Georgetown/Cheddi Jagan International Airport, Guyana (SYCJ) 06-29N 058-15W Feb 25, 2021 - 07:00 PM EST / 2021.02.26 0000 UTC
Wind: from the ENE (060 degrees) at 7 MPH (6 KT):0
Visibility: greater than 7 mile(s):0
Sky conditions: mostly cloudy Temperature: 78 F (26 C) Dew Point: 75 F (24 C) Relative Humidity: 88% Pressure (altimeter): 29.85 in. Hg (1011 hPa)
ob: SYCJ 260000Z 06006KT 9999 FEW038 BKN080 26/24 Q1011 NOSIG cycle: 0
Sunrise: 10:08 Sunset: 22:03 (UTC)

Eduardo Gomes International, Brazil (SBEG) 03-02S 060-03W Feb 25, 2021 - 07:00 PM EST / 2021.02.26 0000 UTC
Wind: Calm:0
Visibility: greater than 7 mile(s):0
Sky conditions: mostly clear Temperature: 75 F (24 C) Dew Point: 73 F (23 C) Relative Humidity: 94% Pressure (altimeter): 29.80 in. Hg (1009 hPa)
ob: SBEG 260000Z 00000KT 9999 FEW010 24/23 Q1009 cycle: 0
Sunrise: 10:09 Sunset: 22:15 (UTC)

TAF:2021/02/26 00:00 TAF SBEG 252100Z 2600/2624 36005KT 8000 SCT010 TN22/2610Z TX28/2617Z BECMG 2606/2609 7000 TSRA BKN010 FEW025CB BECMG 2610/2613 03005KT 8000 NSW SCT015 RMK PHC

This route has never been flown.

Route map